sensor_id;sensor_type;location;lat;lon;timestamp;P1;durP1;ratioP1;P2;durP2;ratioP2
8632;SDS011;4354;49.832;10.746;2023-10-31T00:00:35;15.03;;;10.13;;
8632;SDS011;4354;49.832;10.746;2023-10-31T00:03:02;9.73;;;8.73;;
8632;SDS011;4354;49.832;10.746;2023-10-31T00:05:29;11.70;;;9.90;;
8632;SDS011;4354;49.832;10.746;2023-10-31T00:07:56;11.83;;;10.30;;
8632;SDS011;4354;49.832;10.746;2023-10-31T00:10:22;10.15;;;8.30;;
8632;SDS011;4354;49.832;10.746;2023-10-31T00:12:49;10.03;;;7.87;;
8632;SDS011;4354;49.832;10.746;2023-10-31T00:15:16;12.47;;;7.57;;
8632;SDS011;4354;49.832;10.746;2023-10-31T00:17:43;8.10;;;7.17;;
8632;SDS011;4354;49.832;10.746;2023-10-31T00:20:10;8.87;;;6.53;;
8632;SDS011;4354;49.832;10.746;2023-10-31T00:22:36;8.50;;;5.90;;
8632;SDS011;4354;49.832;10.746;2023-10-31T00:25:03;6.23;;;4.87;;
8632;SDS011;4354;49.832;10.746;2023-10-31T00:27:30;5.57;;;4.30;;
8632;SDS011;4354;49.832;10.746;2023-10-31T00:29:57;6.07;;;3.88;;
8632;SDS011;4354;49.832;10.746;2023-10-31T00:32:24;3.40;;;3.10;;
8632;SDS011;4354;49.832;10.746;2023-10-31T00:34:52;3.10;;;2.80;;
8632;SDS011;4354;49.832;10.746;2023-10-31T00:37:18;3.53;;;3.17;;
8632;SDS011;4354;49.832;10.746;2023-10-31T00:39:45;3.70;;;2.73;;
8632;SDS011;4354;49.832;10.746;2023-10-31T00:42:12;2.93;;;2.50;;
8632;SDS011;4354;49.832;10.746;2023-10-31T00:44:39;2.17;;;1.98;;
8632;SDS011;4354;49.832;10.746;2023-10-31T00:47:05;2.87;;;2.33;;
8632;SDS011;4354;49.832;10.746;2023-10-31T00:49:32;3.97;;;2.07;;
8632;SDS011;4354;49.832;10.746;2023-10-31T00:51:59;2.70;;;1.97;;
8632;SDS011;4354;49.832;10.746;2023-10-31T00:54:26;2.37;;;1.93;;
8632;SDS011;4354;49.832;10.746;2023-10-31T00:56:52;1.80;;;1.70;;
8632;SDS011;4354;49.832;10.746;2023-10-31T00:59:19;2.20;;;2.00;;
8632;SDS011;4354;49.832;10.746;2023-10-31T01:01:46;3.10;;;2.40;;
8632;SDS011;4354;49.832;10.746;2023-10-31T01:04:13;2.20;;;2.00;;
8632;SDS011;4354;49.832;10.746;2023-10-31T01:06:42;2.60;;;2.27;;
8632;SDS011;4354;49.832;10.746;2023-10-31T01:09:09;2.57;;;2.07;;
8632;SDS011;4354;49.832;10.746;2023-10-31T01:11:37;2.50;;;1.90;;
8632;SDS011;4354;49.832;10.746;2023-10-31T01:14:04;2.17;;;1.80;;
8632;SDS011;4354;49.832;10.746;2023-10-31T01:16:31;3.87;;;1.80;;
8632;SDS011;4354;49.832;10.746;2023-10-31T01:18:58;2.10;;;1.90;;
8632;SDS011;4354;49.832;10.746;2023-10-31T01:21:24;2.80;;;1.60;;
8632;SDS011;4354;49.832;10.746;2023-10-31T01:23:51;1.30;;;1.20;;
8632;SDS011;4354;49.832;10.746;2023-10-31T01:26:18;1.67;;;1.50;;
8632;SDS011;4354;49.832;10.746;2023-10-31T01:28:45;2.30;;;1.83;;
8632;SDS011;4354;49.832;10.746;2023-10-31T01:31:11;2.10;;;2.00;;
8632;SDS011;4354;49.832;10.746;2023-10-31T01:33:38;2.50;;;2.30;;
8632;SDS011;4354;49.832;10.746;2023-10-31T01:36:05;2.50;;;2.30;;
8632;SDS011;4354;49.832;10.746;2023-10-31T01:38:32;2.27;;;2.00;;
8632;SDS011;4354;49.832;10.746;2023-10-31T01:40:59;2.10;;;2.00;;
8632;SDS011;4354;49.832;10.746;2023-10-31T01:43:32;2.33;;;1.80;;
8632;SDS011;4354;49.832;10.746;2023-10-31T01:46:03;1.83;;;1.73;;
8632;SDS011;4354;49.832;10.746;2023-10-31T01:48:32;2.47;;;1.87;;
8632;SDS011;4354;49.832;10.746;2023-10-31T01:51:00;1.60;;;1.50;;
8632;SDS011;4354;49.832;10.746;2023-10-31T01:53:33;1.47;;;1.37;;
8632;SDS011;4354;49.832;10.746;2023-10-31T01:56:02;3.00;;;1.80;;
8632;SDS011;4354;49.832;10.746;2023-10-31T01:58:31;3.30;;;1.80;;
8632;SDS011;4354;49.832;10.746;2023-10-31T02:01:00;1.90;;;1.80;;
8632;SDS011;4354;49.832;10.746;2023-10-31T02:03:27;2.03;;;1.93;;
8632;SDS011;4354;49.832;10.746;2023-10-31T02:05:55;1.90;;;1.80;;
8632;SDS011;4354;49.832;10.746;2023-10-31T02:08:24;2.23;;;2.03;;
8632;SDS011;4354;49.832;10.746;2023-10-31T02:10:51;1.70;;;1.60;;
8632;SDS011;4354;49.832;10.746;2023-10-31T02:13:18;1.73;;;1.63;;
8632;SDS011;4354;49.832;10.746;2023-10-31T02:15:45;1.60;;;1.50;;
8632;SDS011;4354;49.832;10.746;2023-10-31T02:18:12;1.63;;;1.53;;
8632;SDS011;4354;49.832;10.746;2023-10-31T02:20:39;1.50;;;1.37;;
8632;SDS011;4354;49.832;10.746;2023-10-31T02:23:07;1.40;;;1.30;;
8632;SDS011;4354;49.832;10.746;2023-10-31T02:25:34;2.73;;;1.20;;
8632;SDS011;4354;49.832;10.746;2023-10-31T02:28:01;1.20;;;1.10;;
8632;SDS011;4354;49.832;10.746;2023-10-31T02:30:28;2.27;;;1.37;;
8632;SDS011;4354;49.832;10.746;2023-10-31T02:32:55;3.73;;;1.00;;
8632;SDS011;4354;49.832;10.746;2023-10-31T02:35:22;0.77;;;0.77;;
8632;SDS011;4354;49.832;10.746;2023-10-31T02:37:49;1.63;;;0.83;;
8632;SDS011;4354;49.832;10.746;2023-10-31T02:40:16;1.90;;;1.00;;
8632;SDS011;4354;49.832;10.746;2023-10-31T02:42:42;1.17;;;0.90;;
8632;SDS011;4354;49.832;10.746;2023-10-31T02:45:09;0.70;;;0.70;;
8632;SDS011;4354;49.832;10.746;2023-10-31T02:47:36;0.93;;;0.70;;
8632;SDS011;4354;49.832;10.746;2023-10-31T02:50:04;3.07;;;0.60;;
8632;SDS011;4354;49.832;10.746;2023-10-31T02:52:31;1.73;;;0.57;;
8632;SDS011;4354;49.832;10.746;2023-10-31T02:54:58;2.43;;;0.80;;
8632;SDS011;4354;49.832;10.746;2023-10-31T02:57:24;1.90;;;0.60;;
8632;SDS011;4354;49.832;10.746;2023-10-31T02:59:51;1.67;;;0.60;;
8632;SDS011;4354;49.832;10.746;2023-10-31T03:02:18;0.80;;;0.50;;
8632;SDS011;4354;49.832;10.746;2023-10-31T03:04:45;0.63;;;0.63;;
8632;SDS011;4354;49.832;10.746;2023-10-31T03:07:11;1.70;;;0.80;;
8632;SDS011;4354;49.832;10.746;2023-10-31T03:09:38;2.73;;;0.70;;
8632;SDS011;4354;49.832;10.746;2023-10-31T03:12:05;2.70;;;0.73;;
8632;SDS011;4354;49.832;10.746;2023-10-31T03:14:32;2.90;;;0.60;;
8632;SDS011;4354;49.832;10.746;2023-10-31T03:16:59;0.60;;;0.60;;
8632;SDS011;4354;49.832;10.746;2023-10-31T03:19:25;0.60;;;0.60;;
8632;SDS011;4354;49.832;10.746;2023-10-31T03:21:53;1.07;;;0.57;;
8632;SDS011;4354;49.832;10.746;2023-10-31T03:24:20;1.93;;;0.60;;
8632;SDS011;4354;49.832;10.746;2023-10-31T03:26:47;1.83;;;0.50;;
8632;SDS011;4354;49.832;10.746;2023-10-31T03:29:14;1.20;;;0.60;;
8632;SDS011;4354;49.832;10.746;2023-10-31T03:31:40;0.47;;;0.47;;
8632;SDS011;4354;49.832;10.746;2023-10-31T03:34:08;1.03;;;0.60;;
8632;SDS011;4354;49.832;10.746;2023-10-31T03:36:34;0.77;;;0.60;;
8632;SDS011;4354;49.832;10.746;2023-10-31T03:39:01;4.50;;;0.77;;
8632;SDS011;4354;49.832;10.746;2023-10-31T03:41:28;1.03;;;0.60;;
8632;SDS011;4354;49.832;10.746;2023-10-31T03:43:55;3.70;;;0.70;;
8632;SDS011;4354;49.832;10.746;2023-10-31T03:46:22;3.97;;;0.63;;
8632;SDS011;4354;49.832;10.746;2023-10-31T03:48:48;1.17;;;0.67;;
8632;SDS011;4354;49.832;10.746;2023-10-31T03:51:16;2.60;;;0.80;;
8632;SDS011;4354;49.832;10.746;2023-10-31T03:53:43;1.83;;;0.70;;
8632;SDS011;4354;49.832;10.746;2023-10-31T03:56:09;4.40;;;1.00;;
8632;SDS011;4354;49.832;10.746;2023-10-31T03:58:36;2.40;;;1.07;;
8632;SDS011;4354;49.832;10.746;2023-10-31T04:01:03;0.70;;;0.70;;
8632;SDS011;4354;49.832;10.746;2023-10-31T04:03:30;0.70;;;0.70;;
8632;SDS011;4354;49.832;10.746;2023-10-31T04:05:57;1.37;;;0.90;;
8632;SDS011;4354;49.832;10.746;2023-10-31T04:08:23;1.70;;;1.10;;
8632;SDS011;4354;49.832;10.746;2023-10-31T04:10:50;1.30;;;0.80;;
8632;SDS011;4354;49.832;10.746;2023-10-31T04:13:17;0.63;;;0.63;;
8632;SDS011;4354;49.832;10.746;2023-10-31T04:15:44;2.10;;;0.90;;
8632;SDS011;4354;49.832;10.746;2023-10-31T04:18:10;1.33;;;0.73;;
8632;SDS011;4354;49.832;10.746;2023-10-31T04:20:37;0.57;;;0.57;;
8632;SDS011;4354;49.832;10.746;2023-10-31T04:23:04;2.30;;;1.00;;
8632;SDS011;4354;49.832;10.746;2023-10-31T04:25:31;1.17;;;0.63;;
8632;SDS011;4354;49.832;10.746;2023-10-31T04:27:58;1.07;;;0.70;;
8632;SDS011;4354;49.832;10.746;2023-10-31T04:30:25;1.93;;;0.70;;
8632;SDS011;4354;49.832;10.746;2023-10-31T04:32:54;0.87;;;0.70;;
8632;SDS011;4354;49.832;10.746;2023-10-31T04:35:21;4.50;;;0.90;;
8632;SDS011;4354;49.832;10.746;2023-10-31T04:37:48;2.30;;;0.90;;
8632;SDS011;4354;49.832;10.746;2023-10-31T04:40:15;1.53;;;0.93;;
8632;SDS011;4354;49.832;10.746;2023-10-31T04:42:42;2.60;;;1.43;;
8632;SDS011;4354;49.832;10.746;2023-10-31T04:45:09;2.83;;;1.87;;
8632;SDS011;4354;49.832;10.746;2023-10-31T04:47:36;3.13;;;1.93;;
8632;SDS011;4354;49.832;10.746;2023-10-31T04:50:03;4.83;;;1.73;;
8632;SDS011;4354;49.832;10.746;2023-10-31T04:52:30;1.60;;;1.30;;
8632;SDS011;4354;49.832;10.746;2023-10-31T04:54:57;2.40;;;1.13;;
8632;SDS011;4354;49.832;10.746;2023-10-31T04:57:24;3.10;;;1.30;;
8632;SDS011;4354;49.832;10.746;2023-10-31T04:59:50;1.70;;;1.50;;
8632;SDS011;4354;49.832;10.746;2023-10-31T05:02:23;3.63;;;1.40;;
8632;SDS011;4354;49.832;10.746;2023-10-31T05:04:50;2.47;;;1.50;;
8632;SDS011;4354;49.832;10.746;2023-10-31T05:07:17;2.50;;;1.60;;
8632;SDS011;4354;49.832;10.746;2023-10-31T05:09:45;3.57;;;1.83;;
8632;SDS011;4354;49.832;10.746;2023-10-31T05:12:12;1.90;;;1.50;;
8632;SDS011;4354;49.832;10.746;2023-10-31T05:14:40;2.47;;;1.90;;
8632;SDS011;4354;49.832;10.746;2023-10-31T05:17:07;1.80;;;1.57;;
8632;SDS011;4354;49.832;10.746;2023-10-31T05:19:34;2.00;;;1.90;;
8632;SDS011;4354;49.832;10.746;2023-10-31T05:22:00;3.03;;;1.87;;
8632;SDS011;4354;49.832;10.746;2023-10-31T05:24:27;1.83;;;1.73;;
8632;SDS011;4354;49.832;10.746;2023-10-31T05:26:54;4.33;;;2.07;;
8632;SDS011;4354;49.832;10.746;2023-10-31T05:29:20;2.27;;;1.63;;
8632;SDS011;4354;49.832;10.746;2023-10-31T05:31:47;4.37;;;1.67;;
8632;SDS011;4354;49.832;10.746;2023-10-31T05:34:14;1.57;;;1.43;;
8632;SDS011;4354;49.832;10.746;2023-10-31T05:36:41;1.97;;;1.43;;
8632;SDS011;4354;49.832;10.746;2023-10-31T05:39:08;3.27;;;1.73;;
8632;SDS011;4354;49.832;10.746;2023-10-31T05:41:35;3.00;;;2.10;;
8632;SDS011;4354;49.832;10.746;2023-10-31T05:44:02;2.57;;;2.37;;
8632;SDS011;4354;49.832;10.746;2023-10-31T05:46:29;4.97;;;2.77;;
8632;SDS011;4354;49.832;10.746;2023-10-31T05:48:56;3.30;;;2.73;;
8632;SDS011;4354;49.832;10.746;2023-10-31T05:51:23;3.47;;;2.67;;
8632;SDS011;4354;49.832;10.746;2023-10-31T05:53:51;3.03;;;2.83;;
8632;SDS011;4354;49.832;10.746;2023-10-31T05:56:18;3.00;;;2.13;;
8632;SDS011;4354;49.832;10.746;2023-10-31T05:58:45;3.13;;;2.10;;
8632;SDS011;4354;49.832;10.746;2023-10-31T06:01:12;2.67;;;1.80;;
8632;SDS011;4354;49.832;10.746;2023-10-31T06:03:42;2.83;;;1.90;;
8632;SDS011;4354;49.832;10.746;2023-10-31T06:06:11;2.73;;;1.80;;
8632;SDS011;4354;49.832;10.746;2023-10-31T06:08:39;2.90;;;1.60;;
8632;SDS011;4354;49.832;10.746;2023-10-31T06:11:06;4.10;;;1.53;;
8632;SDS011;4354;49.832;10.746;2023-10-31T06:13:33;1.83;;;1.53;;
8632;SDS011;4354;49.832;10.746;2023-10-31T06:16:00;5.90;;;2.23;;
8632;SDS011;4354;49.832;10.746;2023-10-31T06:18:27;1.87;;;1.73;;
8632;SDS011;4354;49.832;10.746;2023-10-31T06:20:55;6.03;;;1.97;;
8632;SDS011;4354;49.832;10.746;2023-10-31T06:23:22;1.87;;;1.30;;
8632;SDS011;4354;49.832;10.746;2023-10-31T06:25:49;2.33;;;1.40;;
8632;SDS011;4354;49.832;10.746;2023-10-31T06:28:16;3.43;;;1.53;;
8632;SDS011;4354;49.832;10.746;2023-10-31T06:30:42;2.23;;;1.50;;
8632;SDS011;4354;49.832;10.746;2023-10-31T06:33:10;5.37;;;2.50;;
8632;SDS011;4354;49.832;10.746;2023-10-31T06:35:37;5.37;;;1.57;;
8632;SDS011;4354;49.832;10.746;2023-10-31T06:38:04;2.30;;;1.67;;
8632;SDS011;4354;49.832;10.746;2023-10-31T06:40:31;2.80;;;1.37;;
8632;SDS011;4354;49.832;10.746;2023-10-31T06:42:58;4.17;;;1.40;;
8632;SDS011;4354;49.832;10.746;2023-10-31T06:45:25;3.57;;;1.20;;
8632;SDS011;4354;49.832;10.746;2023-10-31T06:47:52;3.47;;;1.57;;
8632;SDS011;4354;49.832;10.746;2023-10-31T06:50:19;1.23;;;1.13;;
8632;SDS011;4354;49.832;10.746;2023-10-31T06:52:46;1.90;;;1.40;;
8632;SDS011;4354;49.832;10.746;2023-10-31T06:55:13;2.63;;;1.30;;
8632;SDS011;4354;49.832;10.746;2023-10-31T06:57:40;2.23;;;1.53;;
8632;SDS011;4354;49.832;10.746;2023-10-31T07:00:07;1.77;;;1.40;;
8632;SDS011;4354;49.832;10.746;2023-10-31T07:02:35;2.63;;;1.47;;
8632;SDS011;4354;49.832;10.746;2023-10-31T07:05:02;4.77;;;1.50;;
8632;SDS011;4354;49.832;10.746;2023-10-31T07:07:30;1.67;;;1.30;;
8632;SDS011;4354;49.832;10.746;2023-10-31T07:09:56;3.07;;;1.37;;
8632;SDS011;4354;49.832;10.746;2023-10-31T07:12:23;3.73;;;1.40;;
8632;SDS011;4354;49.832;10.746;2023-10-31T07:14:51;2.27;;;1.40;;
8632;SDS011;4354;49.832;10.746;2023-10-31T07:17:19;2.37;;;1.30;;
8632;SDS011;4354;49.832;10.746;2023-10-31T07:19:46;1.10;;;1.00;;
8632;SDS011;4354;49.832;10.746;2023-10-31T07:22:12;1.53;;;0.80;;
8632;SDS011;4354;49.832;10.746;2023-10-31T07:24:39;1.93;;;1.00;;
8632;SDS011;4354;49.832;10.746;2023-10-31T07:27:06;2.60;;;1.10;;
8632;SDS011;4354;49.832;10.746;2023-10-31T07:29:33;1.33;;;1.10;;
8632;SDS011;4354;49.832;10.746;2023-10-31T07:32:00;1.83;;;1.00;;
8632;SDS011;4354;49.832;10.746;2023-10-31T07:34:29;1.97;;;1.20;;
8632;SDS011;4354;49.832;10.746;2023-10-31T07:36:56;1.43;;;0.80;;
8632;SDS011;4354;49.832;10.746;2023-10-31T07:39:23;2.00;;;1.10;;
8632;SDS011;4354;49.832;10.746;2023-10-31T07:41:49;2.97;;;0.93;;
8632;SDS011;4354;49.832;10.746;2023-10-31T07:44:16;1.13;;;0.90;;
8632;SDS011;4354;49.832;10.746;2023-10-31T07:46:43;4.53;;;1.03;;
8632;SDS011;4354;49.832;10.746;2023-10-31T07:49:10;1.73;;;0.70;;
8632;SDS011;4354;49.832;10.746;2023-10-31T07:51:37;3.43;;;1.03;;
8632;SDS011;4354;49.832;10.746;2023-10-31T07:54:03;3.87;;;0.90;;
8632;SDS011;4354;49.832;10.746;2023-10-31T07:56:30;4.67;;;0.93;;
8632;SDS011;4354;49.832;10.746;2023-10-31T07:58:59;4.43;;;1.40;;
8632;SDS011;4354;49.832;10.746;2023-10-31T08:01:25;2.47;;;0.90;;
8632;SDS011;4354;49.832;10.746;2023-10-31T08:03:54;3.50;;;1.20;;
8632;SDS011;4354;49.832;10.746;2023-10-31T08:06:22;3.60;;;1.40;;
8632;SDS011;4354;49.832;10.746;2023-10-31T08:08:49;1.57;;;0.90;;
8632;SDS011;4354;49.832;10.746;2023-10-31T08:11:17;4.50;;;1.03;;
8632;SDS011;4354;49.832;10.746;2023-10-31T08:13:44;4.73;;;0.80;;
8632;SDS011;4354;49.832;10.746;2023-10-31T08:16:10;2.27;;;1.00;;
8632;SDS011;4354;49.832;10.746;2023-10-31T08:18:44;3.07;;;1.20;;
8632;SDS011;4354;49.832;10.746;2023-10-31T08:21:11;2.70;;;0.77;;
8632;SDS011;4354;49.832;10.746;2023-10-31T08:23:38;2.20;;;0.90;;
8632;SDS011;4354;49.832;10.746;2023-10-31T08:26:05;4.47;;;2.17;;
8632;SDS011;4354;49.832;10.746;2023-10-31T08:28:32;6.87;;;2.70;;
8632;SDS011;4354;49.832;10.746;2023-10-31T08:30:58;3.97;;;2.30;;
8632;SDS011;4354;49.832;10.746;2023-10-31T08:33:26;1.90;;;1.50;;
8632;SDS011;4354;49.832;10.746;2023-10-31T08:35:52;4.20;;;2.30;;
8632;SDS011;4354;49.832;10.746;2023-10-31T08:38:19;6.97;;;3.47;;
8632;SDS011;4354;49.832;10.746;2023-10-31T08:40:57;4.17;;;2.60;;
8632;SDS011;4354;49.832;10.746;2023-10-31T08:43:25;5.73;;;2.93;;
8632;SDS011;4354;49.832;10.746;2023-10-31T08:45:52;7.00;;;3.53;;
8632;SDS011;4354;49.832;10.746;2023-10-31T08:48:19;4.03;;;2.60;;
8632;SDS011;4354;49.832;10.746;2023-10-31T08:50:47;6.63;;;3.63;;
8632;SDS011;4354;49.832;10.746;2023-10-31T08:53:14;4.33;;;2.47;;
8632;SDS011;4354;49.832;10.746;2023-10-31T08:55:41;6.83;;;2.87;;
8632;SDS011;4354;49.832;10.746;2023-10-31T08:58:11;5.37;;;3.20;;
8632;SDS011;4354;49.832;10.746;2023-10-31T09:00:39;6.63;;;4.50;;
8632;SDS011;4354;49.832;10.746;2023-10-31T09:03:09;5.07;;;2.30;;
8632;SDS011;4354;49.832;10.746;2023-10-31T09:05:36;7.07;;;3.47;;
8632;SDS011;4354;49.832;10.746;2023-10-31T09:08:03;6.97;;;3.60;;
8632;SDS011;4354;49.832;10.746;2023-10-31T09:10:32;7.27;;;3.47;;
8632;SDS011;4354;49.832;10.746;2023-10-31T09:12:59;4.97;;;2.43;;
8632;SDS011;4354;49.832;10.746;2023-10-31T09:15:26;5.37;;;2.90;;
8632;SDS011;4354;49.832;10.746;2023-10-31T09:17:53;7.60;;;3.57;;
8632;SDS011;4354;49.832;10.746;2023-10-31T09:20:20;3.23;;;2.57;;
8632;SDS011;4354;49.832;10.746;2023-10-31T09:22:47;6.80;;;3.80;;
8632;SDS011;4354;49.832;10.746;2023-10-31T09:25:13;4.70;;;3.17;;
8632;SDS011;4354;49.832;10.746;2023-10-31T09:27:40;2.67;;;1.90;;
8632;SDS011;4354;49.832;10.746;2023-10-31T09:30:08;7.10;;;3.73;;
8632;SDS011;4354;49.832;10.746;2023-10-31T09:32:35;6.47;;;3.00;;
8632;SDS011;4354;49.832;10.746;2023-10-31T09:35:03;5.70;;;3.30;;
8632;SDS011;4354;49.832;10.746;2023-10-31T09:37:30;9.70;;;4.83;;
8632;SDS011;4354;49.832;10.746;2023-10-31T09:39:57;5.23;;;3.60;;
8632;SDS011;4354;49.832;10.746;2023-10-31T09:42:23;4.15;;;2.97;;
8632;SDS011;4354;49.832;10.746;2023-10-31T09:44:50;5.07;;;2.67;;
8632;SDS011;4354;49.832;10.746;2023-10-31T09:47:17;4.65;;;2.92;;
8632;SDS011;4354;49.832;10.746;2023-10-31T09:49:46;4.15;;;2.22;;
8632;SDS011;4354;49.832;10.746;2023-10-31T09:52:14;3.73;;;2.53;;
8632;SDS011;4354;49.832;10.746;2023-10-31T09:54:41;6.07;;;2.57;;
8632;SDS011;4354;49.832;10.746;2023-10-31T09:57:12;3.80;;;2.50;;
8632;SDS011;4354;49.832;10.746;2023-10-31T09:59:40;5.03;;;3.03;;
8632;SDS011;4354;49.832;10.746;2023-10-31T10:02:07;8.65;;;4.43;;
8632;SDS011;4354;49.832;10.746;2023-10-31T10:04:34;6.13;;;3.78;;
8632;SDS011;4354;49.832;10.746;2023-10-31T10:07:03;6.07;;;3.08;;
8632;SDS011;4354;49.832;10.746;2023-10-31T10:09:31;3.38;;;2.05;;
8632;SDS011;4354;49.832;10.746;2023-10-31T10:11:58;2.95;;;1.40;;
8632;SDS011;4354;49.832;10.746;2023-10-31T10:14:26;7.05;;;3.20;;
8632;SDS011;4354;49.832;10.746;2023-10-31T10:16:54;1.83;;;0.82;;
8632;SDS011;4354;49.832;10.746;2023-10-31T10:19:22;2.78;;;1.35;;
8632;SDS011;4354;49.832;10.746;2023-10-31T10:21:51;2.97;;;1.90;;
8632;SDS011;4354;49.832;10.746;2023-10-31T10:24:21;2.10;;;1.52;;
8632;SDS011;4354;49.832;10.746;2023-10-31T10:26:49;5.15;;;2.08;;
8632;SDS011;4354;49.832;10.746;2023-10-31T10:29:16;3.70;;;2.00;;
8632;SDS011;4354;49.832;10.746;2023-10-31T10:31:44;5.05;;;2.17;;
8632;SDS011;4354;49.832;10.746;2023-10-31T10:34:13;1.10;;;1.00;;
8632;SDS011;4354;49.832;10.746;2023-10-31T10:36:43;5.68;;;2.90;;
8632;SDS011;4354;49.832;10.746;2023-10-31T10:39:19;5.15;;;3.40;;
8632;SDS011;4354;49.832;10.746;2023-10-31T10:41:54;6.40;;;4.18;;
8632;SDS011;4354;49.832;10.746;2023-10-31T10:44:32;5.78;;;3.25;;
8632;SDS011;4354;49.832;10.746;2023-10-31T10:47:01;7.97;;;5.22;;
8632;SDS011;4354;49.832;10.746;2023-10-31T10:49:32;6.97;;;4.32;;
8632;SDS011;4354;49.832;10.746;2023-10-31T10:52:44;10.82;;;5.45;;
8632;SDS011;4354;49.832;10.746;2023-10-31T10:55:12;5.68;;;2.85;;
8632;SDS011;4354;49.832;10.746;2023-10-31T11:00:18;2.08;;;1.50;;
8632;SDS011;4354;49.832;10.746;2023-10-31T11:02:46;6.32;;;4.15;;
8632;SDS011;4354;49.832;10.746;2023-10-31T11:05:15;5.47;;;2.40;;
8632;SDS011;4354;49.832;10.746;2023-10-31T11:07:43;6.15;;;3.78;;
8632;SDS011;4354;49.832;10.746;2023-10-31T11:10:11;6.15;;;2.50;;
8632;SDS011;4354;49.832;10.746;2023-10-31T11:12:39;5.60;;;3.03;;
8632;SDS011;4354;49.832;10.746;2023-10-31T11:15:06;25.17;;;11.30;;
8632;SDS011;4354;49.832;10.746;2023-10-31T11:17:38;3.88;;;2.33;;
8632;SDS011;4354;49.832;10.746;2023-10-31T11:20:09;2.92;;;1.42;;
8632;SDS011;4354;49.832;10.746;2023-10-31T11:22:41;3.03;;;1.75;;
8632;SDS011;4354;49.832;10.746;2023-10-31T11:25:12;3.22;;;1.23;;
8632;SDS011;4354;49.832;10.746;2023-10-31T11:27:51;4.30;;;1.80;;
8632;SDS011;4354;49.832;10.746;2023-10-31T11:30:27;5.35;;;2.95;;
8632;SDS011;4354;49.832;10.746;2023-10-31T11:32:57;3.13;;;1.83;;
8632;SDS011;4354;49.832;10.746;2023-10-31T11:35:25;4.07;;;2.60;;
8632;SDS011;4354;49.832;10.746;2023-10-31T11:38:02;6.53;;;4.35;;
8632;SDS011;4354;49.832;10.746;2023-10-31T11:40:32;3.33;;;1.00;;
8632;SDS011;4354;49.832;10.746;2023-10-31T11:43:02;4.80;;;1.50;;
8632;SDS011;4354;49.832;10.746;2023-10-31T11:45:40;8.73;;;4.57;;
8632;SDS011;4354;49.832;10.746;2023-10-31T11:48:11;8.30;;;5.30;;
8632;SDS011;4354;49.832;10.746;2023-10-31T11:50:38;8.38;;;4.57;;
8632;SDS011;4354;49.832;10.746;2023-10-31T11:53:09;9.07;;;4.90;;
8632;SDS011;4354;49.832;10.746;2023-10-31T11:55:44;3.25;;;2.03;;
8632;SDS011;4354;49.832;10.746;2023-10-31T12:00:50;3.65;;;1.80;;
8632;SDS011;4354;49.832;10.746;2023-10-31T12:03:19;7.78;;;3.90;;
8632;SDS011;4354;49.832;10.746;2023-10-31T12:05:54;8.57;;;4.43;;
8632;SDS011;4354;49.832;10.746;2023-10-31T12:08:30;6.22;;;4.30;;
8632;SDS011;4354;49.832;10.746;2023-10-31T12:11:04;7.10;;;3.10;;
8632;SDS011;4354;49.832;10.746;2023-10-31T12:13:31;7.57;;;3.47;;
8632;SDS011;4354;49.832;10.746;2023-10-31T12:15:58;5.93;;;3.42;;
8632;SDS011;4354;49.832;10.746;2023-10-31T12:18:27;9.52;;;5.88;;
8632;SDS011;4354;49.832;10.746;2023-10-31T12:20:54;8.48;;;4.70;;
8632;SDS011;4354;49.832;10.746;2023-10-31T12:23:22;6.57;;;4.22;;
8632;SDS011;4354;49.832;10.746;2023-10-31T12:25:52;9.13;;;5.85;;
8632;SDS011;4354;49.832;10.746;2023-10-31T12:28:20;7.50;;;5.25;;
8632;SDS011;4354;49.832;10.746;2023-10-31T12:30:49;11.05;;;7.43;;
8632;SDS011;4354;49.832;10.746;2023-10-31T12:33:17;6.47;;;3.47;;
8632;SDS011;4354;49.832;10.746;2023-10-31T12:35:44;2.60;;;1.85;;
8632;SDS011;4354;49.832;10.746;2023-10-31T12:38:12;5.55;;;3.97;;
8632;SDS011;4354;49.832;10.746;2023-10-31T12:40:45;9.75;;;4.95;;
8632;SDS011;4354;49.832;10.746;2023-10-31T12:43:12;10.18;;;5.57;;
8632;SDS011;4354;49.832;10.746;2023-10-31T12:45:39;7.78;;;5.53;;
8632;SDS011;4354;49.832;10.746;2023-10-31T12:48:07;10.98;;;6.00;;
8632;SDS011;4354;49.832;10.746;2023-10-31T12:50:36;5.82;;;3.30;;
8632;SDS011;4354;49.832;10.746;2023-10-31T12:53:04;6.32;;;3.38;;
8632;SDS011;4354;49.832;10.746;2023-10-31T12:55:41;8.68;;;4.82;;
8632;SDS011;4354;49.832;10.746;2023-10-31T12:58:08;3.00;;;1.90;;
8632;SDS011;4354;49.832;10.746;2023-10-31T13:00:36;7.35;;;3.55;;
8632;SDS011;4354;49.832;10.746;2023-10-31T13:03:07;6.70;;;2.97;;
8632;SDS011;4354;49.832;10.746;2023-10-31T13:05:36;4.60;;;2.45;;
8632;SDS011;4354;49.832;10.746;2023-10-31T13:08:04;3.10;;;1.92;;
8632;SDS011;4354;49.832;10.746;2023-10-31T13:10:45;2.97;;;2.10;;
8632;SDS011;4354;49.832;10.746;2023-10-31T13:13:12;7.65;;;4.25;;
8632;SDS011;4354;49.832;10.746;2023-10-31T13:15:39;6.70;;;4.18;;
8632;SDS011;4354;49.832;10.746;2023-10-31T13:18:06;4.30;;;2.20;;
8632;SDS011;4354;49.832;10.746;2023-10-31T13:20:33;2.72;;;2.00;;
8632;SDS011;4354;49.832;10.746;2023-10-31T13:23:00;2.45;;;1.50;;
8632;SDS011;4354;49.832;10.746;2023-10-31T13:25:29;3.03;;;1.88;;
8632;SDS011;4354;49.832;10.746;2023-10-31T13:27:57;2.65;;;1.52;;
8632;SDS011;4354;49.832;10.746;2023-10-31T13:30:24;3.47;;;1.25;;
8632;SDS011;4354;49.832;10.746;2023-10-31T13:32:51;1.92;;;1.42;;
8632;SDS011;4354;49.832;10.746;2023-10-31T13:35:19;4.07;;;1.98;;
8632;SDS011;4354;49.832;10.746;2023-10-31T13:37:46;2.55;;;1.13;;
8632;SDS011;4354;49.832;10.746;2023-10-31T13:40:13;2.38;;;1.20;;
8632;SDS011;4354;49.832;10.746;2023-10-31T13:42:40;2.05;;;0.85;;
8632;SDS011;4354;49.832;10.746;2023-10-31T13:45:07;1.38;;;1.23;;
8632;SDS011;4354;49.832;10.746;2023-10-31T13:47:35;6.05;;;1.05;;
8632;SDS011;4354;49.832;10.746;2023-10-31T13:50:04;6.40;;;1.20;;
8632;SDS011;4354;49.832;10.746;2023-10-31T13:52:33;2.40;;;1.00;;
8632;SDS011;4354;49.832;10.746;2023-10-31T13:55:01;1.67;;;1.00;;
8632;SDS011;4354;49.832;10.746;2023-10-31T13:57:27;2.15;;;0.85;;
8632;SDS011;4354;49.832;10.746;2023-10-31T13:59:54;4.50;;;1.13;;
8632;SDS011;4354;49.832;10.746;2023-10-31T14:02:21;2.45;;;0.93;;
8632;SDS011;4354;49.832;10.746;2023-10-31T14:04:48;2.20;;;1.30;;
8632;SDS011;4354;49.832;10.746;2023-10-31T14:07:20;4.25;;;1.10;;
8632;SDS011;4354;49.832;10.746;2023-10-31T14:09:51;1.75;;;0.93;;
8632;SDS011;4354;49.832;10.746;2023-10-31T14:12:19;3.70;;;1.23;;
8632;SDS011;4354;49.832;10.746;2023-10-31T14:14:45;5.38;;;1.30;;
8632;SDS011;4354;49.832;10.746;2023-10-31T14:17:17;3.13;;;1.42;;
8632;SDS011;4354;49.832;10.746;2023-10-31T14:19:44;1.83;;;1.05;;
8632;SDS011;4354;49.832;10.746;2023-10-31T14:22:13;3.80;;;1.17;;
8632;SDS011;4354;49.832;10.746;2023-10-31T14:24:40;3.20;;;1.38;;
8632;SDS011;4354;49.832;10.746;2023-10-31T14:27:07;5.88;;;1.73;;
8632;SDS011;4354;49.832;10.746;2023-10-31T14:29:34;4.05;;;1.52;;
8632;SDS011;4354;49.832;10.746;2023-10-31T14:32:08;2.95;;;1.60;;
8632;SDS011;4354;49.832;10.746;2023-10-31T14:34:35;4.88;;;2.38;;
8632;SDS011;4354;49.832;10.746;2023-10-31T14:37:02;3.05;;;1.30;;
8632;SDS011;4354;49.832;10.746;2023-10-31T14:39:29;6.40;;;1.58;;
8632;SDS011;4354;49.832;10.746;2023-10-31T14:41:56;2.70;;;1.43;;
8632;SDS011;4354;49.832;10.746;2023-10-31T14:44:23;5.65;;;2.08;;
8632;SDS011;4354;49.832;10.746;2023-10-31T14:46:50;3.40;;;1.63;;
8632;SDS011;4354;49.832;10.746;2023-10-31T14:49:17;4.07;;;1.35;;
8632;SDS011;4354;49.832;10.746;2023-10-31T14:51:43;4.60;;;1.60;;
8632;SDS011;4354;49.832;10.746;2023-10-31T14:54:10;2.80;;;1.33;;
8632;SDS011;4354;49.832;10.746;2023-10-31T14:56:37;3.67;;;1.45;;
8632;SDS011;4354;49.832;10.746;2023-10-31T14:59:04;3.87;;;1.40;;
8632;SDS011;4354;49.832;10.746;2023-10-31T15:01:31;6.53;;;1.33;;
8632;SDS011;4354;49.832;10.746;2023-10-31T15:03:57;4.10;;;1.40;;
8632;SDS011;4354;49.832;10.746;2023-10-31T15:06:24;4.87;;;1.03;;
8632;SDS011;4354;49.832;10.746;2023-10-31T15:08:51;3.27;;;1.23;;